sensor_id;sensor_type;location;lat;lon;timestamp;temperature;humidity
12655;DHT22;6392;44.644;11.448;2023-08-06T00:01:01;19.30;99.90
12655;DHT22;6392;44.644;11.448;2023-08-06T00:03:28;19.30;99.90
12655;DHT22;6392;44.644;11.448;2023-08-06T00:05:55;19.30;99.90
12655;DHT22;6392;44.644;11.448;2023-08-06T00:08:22;19.30;99.90
12655;DHT22;6392;44.644;11.448;2023-08-06T00:10:50;19.30;99.90
12655;DHT22;6392;44.644;11.448;2023-08-06T00:13:17;19.20;99.90
12655;DHT22;6392;44.644;11.448;2023-08-06T00:15:44;19.30;99.90
12655;DHT22;6392;44.644;11.448;2023-08-06T00:18:11;19.20;99.90
12655;DHT22;6392;44.644;11.448;2023-08-06T00:20:39;19.10;99.90
12655;DHT22;6392;44.644;11.448;2023-08-06T00:23:07;19.10;99.90
12655;DHT22;6392;44.644;11.448;2023-08-06T00:25:34;19.10;99.90
12655;DHT22;6392;44.644;11.448;2023-08-06T00:28:02;19.10;99.90
12655;DHT22;6392;44.644;11.448;2023-08-06T00:30:29;19.10;99.90
12655;DHT22;6392;44.644;11.448;2023-08-06T00:32:57;19.00;99.90
12655;DHT22;6392;44.644;11.448;2023-08-06T00:35:24;19.00;99.90
12655;DHT22;6392;44.644;11.448;2023-08-06T00:37:51;19.00;99.90
12655;DHT22;6392;44.644;11.448;2023-08-06T00:40:20;19.00;99.90
12655;DHT22;6392;44.644;11.448;2023-08-06T00:42:48;18.90;99.90
12655;DHT22;6392;44.644;11.448;2023-08-06T00:45:16;18.90;99.90
12655;DHT22;6392;44.644;11.448;2023-08-06T00:47:43;18.90;99.90
12655;DHT22;6392;44.644;11.448;2023-08-06T00:50:11;18.90;99.90
12655;DHT22;6392;44.644;11.448;2023-08-06T00:52:38;18.80;99.90
12655;DHT22;6392;44.644;11.448;2023-08-06T00:55:06;18.80;99.90
12655;DHT22;6392;44.644;11.448;2023-08-06T00:57:33;18.80;99.90
12655;DHT22;6392;44.644;11.448;2023-08-06T01:00:01;18.70;99.90
12655;DHT22;6392;44.644;11.448;2023-08-06T01:02:31;18.70;99.90
12655;DHT22;6392;44.644;11.448;2023-08-06T01:04:58;18.70;99.90
12655;DHT22;6392;44.644;11.448;2023-08-06T01:07:40;18.70;99.90
12655;DHT22;6392;44.644;11.448;2023-08-06T01:10:23;18.60;99.90
12655;DHT22;6392;44.644;11.448;2023-08-06T01:12:55;18.60;99.90
12655;DHT22;6392;44.644;11.448;2023-08-06T01:15:33;18.60;99.90
12655;DHT22;6392;44.644;11.448;2023-08-06T01:18:03;18.60;99.90
12655;DHT22;6392;44.644;11.448;2023-08-06T01:20:32;18.70;99.90
12655;DHT22;6392;44.644;11.448;2023-08-06T01:22:59;18.70;99.90
12655;DHT22;6392;44.644;11.448;2023-08-06T01:25:31;18.70;99.90
12655;DHT22;6392;44.644;11.448;2023-08-06T01:28:11;18.70;99.90
12655;DHT22;6392;44.644;11.448;2023-08-06T01:30:42;18.80;99.90
12655;DHT22;6392;44.644;11.448;2023-08-06T01:33:13;18.80;99.90
12655;DHT22;6392;44.644;11.448;2023-08-06T01:35:43;18.80;99.90
12655;DHT22;6392;44.644;11.448;2023-08-06T01:38:11;18.80;99.90
12655;DHT22;6392;44.644;11.448;2023-08-06T01:40:38;18.90;99.90
12655;DHT22;6392;44.644;11.448;2023-08-06T01:43:05;18.80;99.90
12655;DHT22;6392;44.644;11.448;2023-08-06T01:45:32;18.90;99.90
12655;DHT22;6392;44.644;11.448;2023-08-06T01:47:59;18.80;99.90
12655;DHT22;6392;44.644;11.448;2023-08-06T01:50:26;18.80;99.90
12655;DHT22;6392;44.644;11.448;2023-08-06T01:52:54;18.80;99.90
12655;DHT22;6392;44.644;11.448;2023-08-06T01:55:21;18.80;99.90
12655;DHT22;6392;44.644;11.448;2023-08-06T01:57:48;18.80;99.90
12655;DHT22;6392;44.644;11.448;2023-08-06T02:00:15;18.70;99.90
12655;DHT22;6392;44.644;11.448;2023-08-06T02:02:42;18.70;99.90
12655;DHT22;6392;44.644;11.448;2023-08-06T02:05:09;18.70;99.90
12655;DHT22;6392;44.644;11.448;2023-08-06T02:07:36;18.70;99.90
12655;DHT22;6392;44.644;11.448;2023-08-06T02:10:06;18.70;99.90
12655;DHT22;6392;44.644;11.448;2023-08-06T02:12:33;18.70;99.90
12655;DHT22;6392;44.644;11.448;2023-08-06T02:15:00;18.70;99.90
12655;DHT22;6392;44.644;11.448;2023-08-06T02:17:27;18.80;99.90
12655;DHT22;6392;44.644;11.448;2023-08-06T02:19:54;18.70;99.90
12655;DHT22;6392;44.644;11.448;2023-08-06T02:22:21;18.60;99.90
12655;DHT22;6392;44.644;11.448;2023-08-06T02:24:49;18.70;99.90
12655;DHT22;6392;44.644;11.448;2023-08-06T02:27:17;18.60;99.90
12655;DHT22;6392;44.644;11.448;2023-08-06T02:29:45;18.70;99.90
12655;DHT22;6392;44.644;11.448;2023-08-06T02:32:12;18.70;99.90
12655;DHT22;6392;44.644;11.448;2023-08-06T02:34:38;18.70;99.90
12655;DHT22;6392;44.644;11.448;2023-08-06T02:37:06;18.70;99.90
12655;DHT22;6392;44.644;11.448;2023-08-06T02:39:32;18.70;99.90
12655;DHT22;6392;44.644;11.448;2023-08-06T02:42:01;18.70;99.90
12655;DHT22;6392;44.644;11.448;2023-08-06T02:44:29;18.70;99.90
12655;DHT22;6392;44.644;11.448;2023-08-06T02:46:56;18.70;99.90
12655;DHT22;6392;44.644;11.448;2023-08-06T02:49:23;18.80;99.90
12655;DHT22;6392;44.644;11.448;2023-08-06T02:51:50;18.70;99.90
12655;DHT22;6392;44.644;11.448;2023-08-06T02:54:17;18.80;99.90
12655;DHT22;6392;44.644;11.448;2023-08-06T02:56:45;18.80;99.90
12655;DHT22;6392;44.644;11.448;2023-08-06T02:59:12;18.80;99.90
12655;DHT22;6392;44.644;11.448;2023-08-06T03:01:41;18.80;99.90
12655;DHT22;6392;44.644;11.448;2023-08-06T03:04:08;18.80;99.90
12655;DHT22;6392;44.644;11.448;2023-08-06T03:06:35;18.80;99.90
12655;DHT22;6392;44.644;11.448;2023-08-06T03:09:02;18.80;99.90
12655;DHT22;6392;44.644;11.448;2023-08-06T03:11:29;18.70;99.90
12655;DHT22;6392;44.644;11.448;2023-08-06T03:13:56;18.70;99.90
12655;DHT22;6392;44.644;11.448;2023-08-06T03:16:23;18.60;99.90
12655;DHT22;6392;44.644;11.448;2023-08-06T03:18:51;18.70;99.90
12655;DHT22;6392;44.644;11.448;2023-08-06T03:21:18;18.70;99.90
12655;DHT22;6392;44.644;11.448;2023-08-06T03:23:47;18.70;99.90
12655;DHT22;6392;44.644;11.448;2023-08-06T03:26:14;18.80;99.90
12655;DHT22;6392;44.644;11.448;2023-08-06T03:28:41;18.80;99.90
12655;DHT22;6392;44.644;11.448;2023-08-06T03:31:08;18.80;99.90
12655;DHT22;6392;44.644;11.448;2023-08-06T03:33:35;18.90;99.90
12655;DHT22;6392;44.644;11.448;2023-08-06T03:36:04;18.90;99.90
12655;DHT22;6392;44.644;11.448;2023-08-06T03:38:31;18.90;99.90
12655;DHT22;6392;44.644;11.448;2023-08-06T03:40:58;18.90;99.90
12655;DHT22;6392;44.644;11.448;2023-08-06T03:43:24;19.00;99.90
12655;DHT22;6392;44.644;11.448;2023-08-06T03:45:51;19.00;99.90
12655;DHT22;6392;44.644;11.448;2023-08-06T03:48:18;19.00;99.90
12655;DHT22;6392;44.644;11.448;2023-08-06T03:50:45;19.10;99.90
12655;DHT22;6392;44.644;11.448;2023-08-06T03:53:14;19.10;99.90
12655;DHT22;6392;44.644;11.448;2023-08-06T03:55:41;19.10;99.90
12655;DHT22;6392;44.644;11.448;2023-08-06T03:58:08;19.10;99.90
12655;DHT22;6392;44.644;11.448;2023-08-06T04:00:35;19.10;99.90
12655;DHT22;6392;44.644;11.448;2023-08-06T04:03:02;19.10;99.90
12655;DHT22;6392;44.644;11.448;2023-08-06T04:05:31;19.10;99.90
12655;DHT22;6392;44.644;11.448;2023-08-06T04:07:58;19.10;99.90
12655;DHT22;6392;44.644;11.448;2023-08-06T04:10:27;19.10;99.90
12655;DHT22;6392;44.644;11.448;2023-08-06T04:12:54;19.10;99.90
12655;DHT22;6392;44.644;11.448;2023-08-06T04:15:21;19.10;99.90
12655;DHT22;6392;44.644;11.448;2023-08-06T04:17:47;19.10;99.90
12655;DHT22;6392;44.644;11.448;2023-08-06T04:20:14;19.10;99.90
12655;DHT22;6392;44.644;11.448;2023-08-06T04:22:41;19.10;99.90
12655;DHT22;6392;44.644;11.448;2023-08-06T04:25:09;19.10;99.90
12655;DHT22;6392;44.644;11.448;2023-08-06T04:27:37;19.10;99.90
12655;DHT22;6392;44.644;11.448;2023-08-06T04:30:07;19.10;99.90
12655;DHT22;6392;44.644;11.448;2023-08-06T04:32:34;19.10;99.90
12655;DHT22;6392;44.644;11.448;2023-08-06T04:35:02;19.10;99.90
12655;DHT22;6392;44.644;11.448;2023-08-06T04:37:29;19.00;99.90
12655;DHT22;6392;44.644;11.448;2023-08-06T04:39:55;19.00;99.90
12655;DHT22;6392;44.644;11.448;2023-08-06T04:42:22;18.90;99.90
12655;DHT22;6392;44.644;11.448;2023-08-06T04:44:51;18.90;99.90
12655;DHT22;6392;44.644;11.448;2023-08-06T04:47:18;18.90;99.90
12655;DHT22;6392;44.644;11.448;2023-08-06T04:49:45;18.80;99.90
12655;DHT22;6392;44.644;11.448;2023-08-06T04:52:12;18.70;99.90
12655;DHT22;6392;44.644;11.448;2023-08-06T04:54:39;18.70;99.90
12655;DHT22;6392;44.644;11.448;2023-08-06T04:57:06;18.70;99.90
12655;DHT22;6392;44.644;11.448;2023-08-06T04:59:33;18.60;99.90
12655;DHT22;6392;44.644;11.448;2023-08-06T05:02:02;18.60;99.90
12655;DHT22;6392;44.644;11.448;2023-08-06T05:04:29;18.70;99.90
12655;DHT22;6392;44.644;11.448;2023-08-06T05:06:56;18.60;99.90
12655;DHT22;6392;44.644;11.448;2023-08-06T05:09:23;18.60;99.90
12655;DHT22;6392;44.644;11.448;2023-08-06T05:11:50;18.60;99.90
12655;DHT22;6392;44.644;11.448;2023-08-06T05:14:17;18.60;99.90
12655;DHT22;6392;44.644;11.448;2023-08-06T05:16:44;18.70;99.90
12655;DHT22;6392;44.644;11.448;2023-08-06T05:19:12;18.70;99.90
12655;DHT22;6392;44.644;11.448;2023-08-06T05:21:39;18.70;99.90
12655;DHT22;6392;44.644;11.448;2023-08-06T05:24:06;18.70;99.90
12655;DHT22;6392;44.644;11.448;2023-08-06T05:26:33;18.80;99.90
12655;DHT22;6392;44.644;11.448;2023-08-06T05:29:00;18.80;99.90
12655;DHT22;6392;44.644;11.448;2023-08-06T05:31:27;18.90;99.90
12655;DHT22;6392;44.644;11.448;2023-08-06T05:33:55;18.90;99.90
12655;DHT22;6392;44.644;11.448;2023-08-06T05:36:23;18.90;99.90
12655;DHT22;6392;44.644;11.448;2023-08-06T05:38:50;19.00;99.90
12655;DHT22;6392;44.644;11.448;2023-08-06T05:41:17;19.00;99.90
12655;DHT22;6392;44.644;11.448;2023-08-06T05:43:45;19.00;99.90
12655;DHT22;6392;44.644;11.448;2023-08-06T05:46:12;19.10;99.90
12655;DHT22;6392;44.644;11.448;2023-08-06T05:48:39;19.10;99.90
12655;DHT22;6392;44.644;11.448;2023-08-06T05:51:06;19.10;99.90
12655;DHT22;6392;44.644;11.448;2023-08-06T05:53:35;19.20;99.90
12655;DHT22;6392;44.644;11.448;2023-08-06T05:56:02;19.20;99.90
12655;DHT22;6392;44.644;11.448;2023-08-06T05:58:28;19.30;99.90
12655;DHT22;6392;44.644;11.448;2023-08-06T06:00:56;19.30;99.90
12655;DHT22;6392;44.644;11.448;2023-08-06T06:03:23;19.30;99.90
12655;DHT22;6392;44.644;11.448;2023-08-06T06:05:50;19.40;99.90
12655;DHT22;6392;44.644;11.448;2023-08-06T06:08:17;19.40;99.90
12655;DHT22;6392;44.644;11.448;2023-08-06T06:10:45;19.50;99.90
12655;DHT22;6392;44.644;11.448;2023-08-06T06:13:12;19.50;99.90
12655;DHT22;6392;44.644;11.448;2023-08-06T06:15:39;19.50;99.90
12655;DHT22;6392;44.644;11.448;2023-08-06T06:18:06;19.60;99.90
12655;DHT22;6392;44.644;11.448;2023-08-06T06:20:33;19.60;99.90
12655;DHT22;6392;44.644;11.448;2023-08-06T06:23:00;19.70;99.90
12655;DHT22;6392;44.644;11.448;2023-08-06T06:25:27;19.70;99.90
12655;DHT22;6392;44.644;11.448;2023-08-06T06:27:55;19.70;99.90
12655;DHT22;6392;44.644;11.448;2023-08-06T06:30:24;19.80;99.90
12655;DHT22;6392;44.644;11.448;2023-08-06T06:32:52;19.90;99.90
12655;DHT22;6392;44.644;11.448;2023-08-06T06:35:19;19.90;99.90
12655;DHT22;6392;44.644;11.448;2023-08-06T06:37:46;20.00;99.90
12655;DHT22;6392;44.644;11.448;2023-08-06T06:40:13;20.10;99.90
12655;DHT22;6392;44.644;11.448;2023-08-06T06:42:40;20.20;99.90
12655;DHT22;6392;44.644;11.448;2023-08-06T06:45:09;20.20;99.90
12655;DHT22;6392;44.644;11.448;2023-08-06T06:47:36;20.30;99.90
12655;DHT22;6392;44.644;11.448;2023-08-06T06:50:04;20.40;99.90
12655;DHT22;6392;44.644;11.448;2023-08-06T06:52:31;20.40;99.90
12655;DHT22;6392;44.644;11.448;2023-08-06T06:54:58;20.40;99.90
12655;DHT22;6392;44.644;11.448;2023-08-06T06:57:25;20.40;99.90
12655;DHT22;6392;44.644;11.448;2023-08-06T06:59:52;20.50;99.90
12655;DHT22;6392;44.644;11.448;2023-08-06T07:02:20;20.60;99.90
12655;DHT22;6392;44.644;11.448;2023-08-06T07:04:47;20.70;99.90
12655;DHT22;6392;44.644;11.448;2023-08-06T07:07:14;20.80;99.90
12655;DHT22;6392;44.644;11.448;2023-08-06T07:09:41;20.90;99.90
12655;DHT22;6392;44.644;11.448;2023-08-06T07:12:08;21.00;99.90
12655;DHT22;6392;44.644;11.448;2023-08-06T07:14:35;21.00;99.90
12655;DHT22;6392;44.644;11.448;2023-08-06T07:17:03;21.10;99.90
12655;DHT22;6392;44.644;11.448;2023-08-06T07:19:31;21.20;99.90
12655;DHT22;6392;44.644;11.448;2023-08-06T07:21:58;21.20;99.90
12655;DHT22;6392;44.644;11.448;2023-08-06T07:24:25;21.20;99.90
12655;DHT22;6392;44.644;11.448;2023-08-06T07:26:52;21.10;99.90
12655;DHT22;6392;44.644;11.448;2023-08-06T07:29:19;21.10;99.90
12655;DHT22;6392;44.644;11.448;2023-08-06T07:31:48;21.10;99.90
12655;DHT22;6392;44.644;11.448;2023-08-06T07:34:16;21.10;99.90
12655;DHT22;6392;44.644;11.448;2023-08-06T07:36:45;21.20;99.90
12655;DHT22;6392;44.644;11.448;2023-08-06T07:39:12;21.30;99.90
12655;DHT22;6392;44.644;11.448;2023-08-06T07:41:39;21.40;99.90
12655;DHT22;6392;44.644;11.448;2023-08-06T07:44:07;21.40;99.90
12655;DHT22;6392;44.644;11.448;2023-08-06T07:46:34;21.50;99.90
12655;DHT22;6392;44.644;11.448;2023-08-06T07:49:01;21.70;99.90
12655;DHT22;6392;44.644;11.448;2023-08-06T07:51:28;21.80;99.90
12655;DHT22;6392;44.644;11.448;2023-08-06T07:53:56;22.00;99.90
12655;DHT22;6392;44.644;11.448;2023-08-06T07:56:23;22.20;99.90
12655;DHT22;6392;44.644;11.448;2023-08-06T07:58:50;22.20;99.90
12655;DHT22;6392;44.644;11.448;2023-08-06T08:01:17;22.20;99.90
12655;DHT22;6392;44.644;11.448;2023-08-06T08:03:44;22.20;99.90
12655;DHT22;6392;44.644;11.448;2023-08-06T08:06:11;22.20;99.90
12655;DHT22;6392;44.644;11.448;2023-08-06T08:08:38;22.20;99.90
12655;DHT22;6392;44.644;11.448;2023-08-06T08:11:07;22.20;99.90
12655;DHT22;6392;44.644;11.448;2023-08-06T08:13:35;22.30;99.90
12655;DHT22;6392;44.644;11.448;2023-08-06T08:16:02;22.40;99.90
12655;DHT22;6392;44.644;11.448;2023-08-06T08:18:29;22.40;99.90
12655;DHT22;6392;44.644;11.448;2023-08-06T08:20:57;22.50;99.90
12655;DHT22;6392;44.644;11.448;2023-08-06T08:23:24;22.60;99.90
12655;DHT22;6392;44.644;11.448;2023-08-06T08:25:51;22.60;99.90
12655;DHT22;6392;44.644;11.448;2023-08-06T08:28:19;22.60;99.90
12655;DHT22;6392;44.644;11.448;2023-08-06T08:30:46;22.60;99.90
12655;DHT22;6392;44.644;11.448;2023-08-06T08:33:13;22.60;99.90
12655;DHT22;6392;44.644;11.448;2023-08-06T08:35:42;22.60;99.90
12655;DHT22;6392;44.644;11.448;2023-08-06T08:38:08;22.70;99.90
12655;DHT22;6392;44.644;11.448;2023-08-06T08:40:40;22.70;99.90
12655;DHT22;6392;44.644;11.448;2023-08-06T08:43:11;22.80;99.90
12655;DHT22;6392;44.644;11.448;2023-08-06T08:45:42;22.80;99.90
12655;DHT22;6392;44.644;11.448;2023-08-06T08:48:11;22.80;99.90
12655;DHT22;6392;44.644;11.448;2023-08-06T08:50:39;22.80;99.90
12655;DHT22;6392;44.644;11.448;2023-08-06T08:53:07;22.80;99.90
12655;DHT22;6392;44.644;11.448;2023-08-06T08:55:36;22.90;99.90
12655;DHT22;6392;44.644;11.448;2023-08-06T08:58:03;23.00;99.90
12655;DHT22;6392;44.644;11.448;2023-08-06T09:00:31;23.10;99.90
12655;DHT22;6392;44.644;11.448;2023-08-06T09:03:00;23.20;99.90
12655;DHT22;6392;44.644;11.448;2023-08-06T09:05:29;23.20;99.90
12655;DHT22;6392;44.644;11.448;2023-08-06T09:08:00;23.30;99.90
12655;DHT22;6392;44.644;11.448;2023-08-06T09:10:28;23.40;99.90
12655;DHT22;6392;44.644;11.448;2023-08-06T09:12:56;23.50;99.90
12655;DHT22;6392;44.644;11.448;2023-08-06T09:15:24;23.60;99.90
12655;DHT22;6392;44.644;11.448;2023-08-06T09:17:52;23.60;99.90
12655;DHT22;6392;44.644;11.448;2023-08-06T09:20:20;23.60;99.90
12655;DHT22;6392;44.644;11.448;2023-08-06T09:22:47;23.70;99.90
12655;DHT22;6392;44.644;11.448;2023-08-06T09:25:21;23.70;99.90
12655;DHT22;6392;44.644;11.448;2023-08-06T09:27:50;23.80;99.90
12655;DHT22;6392;44.644;11.448;2023-08-06T09:30:29;23.80;99.90
12655;DHT22;6392;44.644;11.448;2023-08-06T09:32:56;23.90;99.90
12655;DHT22;6392;44.644;11.448;2023-08-06T09:35:27;23.90;99.90
12655;DHT22;6392;44.644;11.448;2023-08-06T09:37:54;23.90;99.90
12655;DHT22;6392;44.644;11.448;2023-08-06T09:40:28;24.00;99.90
12655;DHT22;6392;44.644;11.448;2023-08-06T09:42:56;24.00;99.90
12655;DHT22;6392;44.644;11.448;2023-08-06T09:45:23;24.00;99.90
12655;DHT22;6392;44.644;11.448;2023-08-06T09:47:56;24.00;99.90
12655;DHT22;6392;44.644;11.448;2023-08-06T09:50:26;24.00;99.90
12655;DHT22;6392;44.644;11.448;2023-08-06T09:52:56;24.10;99.90
12655;DHT22;6392;44.644;11.448;2023-08-06T09:55:24;24.20;99.90
12655;DHT22;6392;44.644;11.448;2023-08-06T09:57:52;24.20;99.90
12655;DHT22;6392;44.644;11.448;2023-08-06T10:00:20;24.30;99.90
12655;DHT22;6392;44.644;11.448;2023-08-06T10:02:47;24.30;99.90
12655;DHT22;6392;44.644;11.448;2023-08-06T10:05:15;24.40;99.90
12655;DHT22;6392;44.644;11.448;2023-08-06T10:07:44;24.40;99.90
12655;DHT22;6392;44.644;11.448;2023-08-06T10:10:12;24.50;99.90
12655;DHT22;6392;44.644;11.448;2023-08-06T10:12:43;24.50;99.90
12655;DHT22;6392;44.644;11.448;2023-08-06T10:15:12;24.50;99.90
12655;DHT22;6392;44.644;11.448;2023-08-06T10:17:42;24.50;99.90
12655;DHT22;6392;44.644;11.448;2023-08-06T10:20:10;24.60;99.90
12655;DHT22;6392;44.644;11.448;2023-08-06T10:22:43;24.70;99.90
12655;DHT22;6392;44.644;11.448;2023-08-06T10:25:11;24.80;99.90
12655;DHT22;6392;44.644;11.448;2023-08-06T10:27:54;24.80;99.90
12655;DHT22;6392;44.644;11.448;2023-08-06T10:30:22;24.90;99.90
12655;DHT22;6392;44.644;11.448;2023-08-06T10:32:51;24.90;99.90
12655;DHT22;6392;44.644;11.448;2023-08-06T10:35:34;24.90;99.90
12655;DHT22;6392;44.644;11.448;2023-08-06T10:38:08;24.90;99.90
12655;DHT22;6392;44.644;11.448;2023-08-06T10:40:35;25.00;99.90
12655;DHT22;6392;44.644;11.448;2023-08-06T10:43:03;25.00;99.90
12655;DHT22;6392;44.644;11.448;2023-08-06T10:45:34;25.00;99.90
12655;DHT22;6392;44.644;11.448;2023-08-06T10:48:02;25.10;99.90
12655;DHT22;6392;44.644;11.448;2023-08-06T10:50:30;25.10;99.90
12655;DHT22;6392;44.644;11.448;2023-08-06T10:53:03;25.20;99.90
12655;DHT22;6392;44.644;11.448;2023-08-06T10:55:32;25.20;99.90
12655;DHT22;6392;44.644;11.448;2023-08-06T10:57:59;25.30;99.90
12655;DHT22;6392;44.644;11.448;2023-08-06T11:00:26;25.40;99.90
12655;DHT22;6392;44.644;11.448;2023-08-06T11:02:53;25.50;99.90
12655;DHT22;6392;44.644;11.448;2023-08-06T11:05:20;25.60;99.90
12655;DHT22;6392;44.644;11.448;2023-08-06T11:07:48;25.60;99.90
12655;DHT22;6392;44.644;11.448;2023-08-06T11:10:17;25.70;99.90
12655;DHT22;6392;44.644;11.448;2023-08-06T11:12:45;25.80;99.90
12655;DHT22;6392;44.644;11.448;2023-08-06T11:15:12;25.90;99.90
12655;DHT22;6392;44.644;11.448;2023-08-06T11:17:40;26.00;99.90
12655;DHT22;6392;44.644;11.448;2023-08-06T11:20:09;26.20;99.90
12655;DHT22;6392;44.644;11.448;2023-08-06T11:22:37;26.30;99.90
12655;DHT22;6392;44.644;11.448;2023-08-06T11:25:05;26.40;99.90
12655;DHT22;6392;44.644;11.448;2023-08-06T11:27:33;26.40;99.90
12655;DHT22;6392;44.644;11.448;2023-08-06T11:30:02;26.50;99.90
12655;DHT22;6392;44.644;11.448;2023-08-06T11:32:29;26.60;99.90
12655;DHT22;6392;44.644;11.448;2023-08-06T11:34:56;26.70;99.90
12655;DHT22;6392;44.644;11.448;2023-08-06T11:37:24;26.70;99.90
12655;DHT22;6392;44.644;11.448;2023-08-06T11:39:52;26.80;99.90
12655;DHT22;6392;44.644;11.448;2023-08-06T11:42:19;26.90;99.90
12655;DHT22;6392;44.644;11.448;2023-08-06T11:44:46;27.00;99.90
12655;DHT22;6392;44.644;11.448;2023-08-06T11:47:17;27.00;99.90
12655;DHT22;6392;44.644;11.448;2023-08-06T11:49:47;27.10;99.90
12655;DHT22;6392;44.644;11.448;2023-08-06T11:52:18;27.20;99.90
12655;DHT22;6392;44.644;11.448;2023-08-06T11:55:01;27.20;99.90
12655;DHT22;6392;44.644;11.448;2023-08-06T11:57:29;27.30;99.90
12655;DHT22;6392;44.644;11.448;2023-08-06T12:00:02;27.40;99.90
12655;DHT22;6392;44.644;11.448;2023-08-06T12:02:32;27.50;99.90
12655;DHT22;6392;44.644;11.448;2023-08-06T12:05:04;27.60;99.90
12655;DHT22;6392;44.644;11.448;2023-08-06T12:07:32;27.60;99.90
12655;DHT22;6392;44.644;11.448;2023-08-06T12:10:01;27.70;99.90
12655;DHT22;6392;44.644;11.448;2023-08-06T12:12:29;27.80;99.90
12655;DHT22;6392;44.644;11.448;2023-08-06T12:14:56;27.80;99.90
12655;DHT22;6392;44.644;11.448;2023-08-06T12:17:23;27.90;99.90
12655;DHT22;6392;44.644;11.448;2023-08-06T12:19:51;28.10;99.90
12655;DHT22;6392;44.644;11.448;2023-08-06T12:22:19;28.30;99.90
12655;DHT22;6392;44.644;11.448;2023-08-06T12:24:46;28.40;99.90
12655;DHT22;6392;44.644;11.448;2023-08-06T12:27:14;28.50;99.90
12655;DHT22;6392;44.644;11.448;2023-08-06T12:29:42;28.60;99.90
12655;DHT22;6392;44.644;11.448;2023-08-06T12:32:09;28.70;99.90
12655;DHT22;6392;44.644;11.448;2023-08-06T12:34:37;28.90;99.90
12655;DHT22;6392;44.644;11.448;2023-08-06T12:37:06;29.00;99.90
12655;DHT22;6392;44.644;11.448;2023-08-06T12:39:33;29.10;99.90
12655;DHT22;6392;44.644;11.448;2023-08-06T12:42:01;29.10;99.90
12655;DHT22;6392;44.644;11.448;2023-08-06T12:44:28;29.20;96.90
12655;DHT22;6392;44.644;11.448;2023-08-06T12:46:56;29.30;97.40
12655;DHT22;6392;44.644;11.448;2023-08-06T12:49:24;29.40;95.20
12655;DHT22;6392;44.644;11.448;2023-08-06T12:51:55;29.60;95.70
12655;DHT22;6392;44.644;11.448;2023-08-06T12:54:24;29.60;96.00
12655;DHT22;6392;44.644;11.448;2023-08-06T12:56:51;29.70;94.50
12655;DHT22;6392;44.644;11.448;2023-08-06T12:59:18;29.80;95.90
12655;DHT22;6392;44.644;11.448;2023-08-06T13:01:47;29.90;96.80
12655;DHT22;6392;44.644;11.448;2023-08-06T13:04:14;30.10;95.10
12655;DHT22;6392;44.644;11.448;2023-08-06T13:06:42;30.20;94.70
12655;DHT22;6392;44.644;11.448;2023-08-06T13:09:09;30.30;95.00
12655;DHT22;6392;44.644;11.448;2023-08-06T13:11:38;30.40;94.90
12655;DHT22;6392;44.644;11.448;2023-08-06T13:14:06;30.50;94.00
12655;DHT22;6392;44.644;11.448;2023-08-06T13:16:35;30.60;93.60
12655;DHT22;6392;44.644;11.448;2023-08-06T13:19:03;30.80;94.10
12655;DHT22;6392;44.644;11.448;2023-08-06T13:21:32;30.90;93.60
12655;DHT22;6392;44.644;11.448;2023-08-06T13:24:00;31.00;93.20
12655;DHT22;6392;44.644;11.448;2023-08-06T13:26:28;31.10;93.10
12655;DHT22;6392;44.644;11.448;2023-08-06T13:28:57;31.20;91.80
12655;DHT22;6392;44.644;11.448;2023-08-06T13:31:24;31.30;92.40
12655;DHT22;6392;44.644;11.448;2023-08-06T13:33:51;31.40;93.20
12655;DHT22;6392;44.644;11.448;2023-08-06T13:36:21;31.50;92.00
12655;DHT22;6392;44.644;11.448;2023-08-06T13:38:48;31.70;91.90
12655;DHT22;6392;44.644;11.448;2023-08-06T13:41:15;31.80;85.60
12655;DHT22;6392;44.644;11.448;2023-08-06T13:43:42;32.00;85.00
12655;DHT22;6392;44.644;11.448;2023-08-06T13:46:11;32.10;87.90
12655;DHT22;6392;44.644;11.448;2023-08-06T13:48:41;32.10;87.70
12655;DHT22;6392;44.644;11.448;2023-08-06T13:51:09;32.10;90.90
12655;DHT22;6392;44.644;11.448;2023-08-06T13:53:36;32.30;91.10
12655;DHT22;6392;44.644;11.448;2023-08-06T13:56:04;32.40;88.10
12655;DHT22;6392;44.644;11.448;2023-08-06T13:58:31;32.60;84.60
12655;DHT22;6392;44.644;11.448;2023-08-06T14:00:58;32.80;78.70
12655;DHT22;6392;44.644;11.448;2023-08-06T14:03:27;32.80;76.80
12655;DHT22;6392;44.644;11.448;2023-08-06T14:05:54;32.90;81.40
12655;DHT22;6392;44.644;11.448;2023-08-06T14:08:22;33.00;76.00
12655;DHT22;6392;44.644;11.448;2023-08-06T14:10:49;33.10;72.50
12655;DHT22;6392;44.644;11.448;2023-08-06T14:13:16;33.20;70.70
12655;DHT22;6392;44.644;11.448;2023-08-06T14:15:44;33.30;70.30
12655;DHT22;6392;44.644;11.448;2023-08-06T14:18:12;33.40;71.00
12655;DHT22;6392;44.644;11.448;2023-08-06T14:20:41;33.60;67.40
12655;DHT22;6392;44.644;11.448;2023-08-06T14:23:09;33.70;63.90
12655;DHT22;6392;44.644;11.448;2023-08-06T14:25:36;33.50;68.30
12655;DHT22;6392;44.644;11.448;2023-08-06T14:28:04;33.70;64.50
12655;DHT22;6392;44.644;11.448;2023-08-06T14:30:32;33.90;64.20
12655;DHT22;6392;44.644;11.448;2023-08-06T14:32:59;34.10;62.90
12655;DHT22;6392;44.644;11.448;2023-08-06T14:35:26;34.30;65.80
12655;DHT22;6392;44.644;11.448;2023-08-06T14:37:55;34.30;66.90
12655;DHT22;6392;44.644;11.448;2023-08-06T14:40:22;34.50;62.80
12655;DHT22;6392;44.644;11.448;2023-08-06T14:42:51;34.70;63.10
12655;DHT22;6392;44.644;11.448;2023-08-06T14:45:18;34.90;60.90
12655;DHT22;6392;44.644;11.448;2023-08-06T14:47:45;35.00;60.90
12655;DHT22;6392;44.644;11.448;2023-08-06T14:50:12;35.20;59.90
12655;DHT22;6392;44.644;11.448;2023-08-06T14:52:39;35.30;62.80
12655;DHT22;6392;44.644;11.448;2023-08-06T14:55:08;35.30;58.70
12655;DHT22;6392;44.644;11.448;2023-08-06T14:57:35;34.90;69.00
12655;DHT22;6392;44.644;11.448;2023-08-06T15:00:02;34.60;63.10
12655;DHT22;6392;44.644;11.448;2023-08-06T15:02:29;34.50;67.80
12655;DHT22;6392;44.644;11.448;2023-08-06T15:04:56;34.20;72.20
12655;DHT22;6392;44.644;11.448;2023-08-06T15:07:23;33.80;72.50
12655;DHT22;6392;44.644;11.448;2023-08-06T15:09:50;34.10;63.20
12655;DHT22;6392;44.644;11.448;2023-08-06T15:12:20;34.40;63.50
12655;DHT22;6392;44.644;11.448;2023-08-06T15:14:47;34.70;65.80
12655;DHT22;6392;44.644;11.448;2023-08-06T15:17:14;34.80;61.50
12655;DHT22;6392;44.644;11.448;2023-08-06T15:19:41;35.10;61.80
12655;DHT22;6392;44.644;11.448;2023-08-06T15:22:08;35.00;64.20
12655;DHT22;6392;44.644;11.448;2023-08-06T15:24:37;35.00;67.30
12655;DHT22;6392;44.644;11.448;2023-08-06T15:27:08;34.70;70.20
12655;DHT22;6392;44.644;11.448;2023-08-06T15:29:36;34.40;67.90
12655;DHT22;6392;44.644;11.448;2023-08-06T15:32:04;34.20;70.10
12655;DHT22;6392;44.644;11.448;2023-08-06T15:34:31;33.70;71.20